Doaktown, Canada
Current Conditions -  °F | °C
As of 2:00 PM on Sunday 21 Dec 2014 (Local Time) from CYFC Reporting Station
Overcast Overcast  
Wind Chill: 28°   Ceiling: 2800
Heat Index: 28°   Visibility: 9mi
Dew Point: 21°   Wind: 3mph
Humidity: 74%   Direction: 10°N
Pressure: 30.37"   Gusts: NA
Location:  46.55°N, 66.12°W
Report Text: CYFC 211800Z AUTO 01003KT 9SM FEW022 OVC028 M02/M06 A3037 RMK SLP286
Loading
Personal Weather Stations






























Interactive Weather Map New forecast layout! Learn more

10-Day Weather Forecast

Advertisements
Track Severe Weather on mobile